Time,TemperatureF,DewpointF,PressureIn,WindDirection,WindDirectionDegrees,WindSpeedMPH,WindSpeedGustMPH,Humidity,HourlyPrecipIn,Conditions,Clouds,dailyrainin,SolarRadiationWatts/m^2,SoftwareType,DateUTC
2013-05-14 00:11:00,84.0,37.0,-100.00,SSE,161,6.0,8.0,19,0.00,,,0.00,0.000000,,2013-05-14 07:11:00,
2013-05-14 00:21:00,84.0,37.0,-100.00,SSE,161,6.0,8.0,19,0.00,,,0.00,0.000000,,2013-05-14 07:21:00,
2013-05-14 00:31:00,84.0,37.0,-100.00,SSE,161,6.0,8.0,19,0.00,,,0.00,0.000000,,2013-05-14 07:31:00,
2013-05-14 00:41:00,84.0,37.0,-100.00,SSE,161,6.0,8.0,19,0.00,,,0.00,0.000000,,2013-05-14 07:41:00,
2013-05-14 01:11:00,80.0,37.0,-100.00,South,177,5.0,6.0,21,0.00,,,0.00,0.000000,,2013-05-14 08:11:00,
2013-05-14 01:21:00,80.0,37.0,-100.00,South,177,5.0,6.0,21,0.00,,,0.00,0.000000,,2013-05-14 08:21:00,
2013-05-14 01:31:00,80.0,37.0,-100.00,South,177,5.0,6.0,21,0.00,,,0.00,0.000000,,2013-05-14 08:31:00,
2013-05-14 01:41:00,80.0,37.0,-100.00,South,177,5.0,6.0,21,0.00,,,0.00,0.000000,,2013-05-14 08:41:00,
2013-05-14 02:11:00,74.0,39.0,-100.00,SSW,199,3.0,5.0,28,0.00,,,0.00,0.000000,,2013-05-14 09:11:00,
2013-05-14 03:14:00,71.0,43.0,-100.00,South,186,4.0,6.0,36,-99.99,,,0.00,0.000000,,2013-05-14 10:14:00,
2013-05-14 04:11:00,68.0,39.0,-100.00,NNW,335,3.0,10.0,35,-99.99,,,0.00,0.000000,,2013-05-14 11:11:00,
2013-05-14 04:21:00,68.0,39.0,-100.00,NNW,335,3.0,10.0,35,-99.99,,,0.00,0.000000,,2013-05-14 11:21:00,
2013-05-14 05:12:00,72.0,39.0,-100.00,South,177,5.0,9.0,30,-99.99,,,0.00,0.000000,,2013-05-14 12:12:00,
2013-05-14 05:21:00,72.0,39.0,-100.00,South,177,5.0,9.0,30,-99.99,,,0.00,0.000000,,2013-05-14 12:21:00,
2013-05-14 05:31:00,72.0,39.0,-100.00,South,177,5.0,9.0,30,-99.99,,,0.00,0.000000,,2013-05-14 12:31:00,
2013-05-14 05:42:00,72.0,39.0,-100.00,South,177,5.0,9.0,30,-99.99,,,0.00,0.000000,,2013-05-14 12:42:00,
2013-05-14 06:11:00,72.0,41.0,-100.00,SSE,163,6.0,8.0,32,0.00,,,0.00,2.000000,,2013-05-14 13:11:00,
2013-05-14 06:22:00,72.0,41.0,-100.00,SSE,163,6.0,8.0,32,0.00,,,0.00,2.000000,,2013-05-14 13:22:00,
2013-05-14 06:32:00,72.0,41.0,-100.00,SSE,163,6.0,8.0,32,0.00,,,0.00,2.000000,,2013-05-14 13:32:00,
2013-05-14 06:41:00,72.0,41.0,-100.00,SSE,163,6.0,8.0,32,0.00,,,0.00,2.000000,,2013-05-14 13:41:00,
2013-05-14 07:11:00,76.0,44.0,-100.00,South,176,4.0,9.0,32,0.00,,,0.00,102.000000,,2013-05-14 14:11:00,
2013-05-14 07:22:00,76.0,44.0,-100.00,South,176,4.0,9.0,32,0.00,,,0.00,102.000000,,2013-05-14 14:22:00,
2013-05-14 07:31:00,76.0,44.0,-100.00,South,176,4.0,9.0,32,0.00,,,0.00,102.000000,,2013-05-14 14:31:00,
2013-05-14 07:41:00,76.0,44.0,-100.00,South,176,4.0,9.0,32,0.00,,,0.00,102.000000,,2013-05-14 14:41:00,
2013-05-14 08:12:00,83.0,49.0,-100.00,SSE,167,7.0,11.0,31,0.00,,,0.00,294.000000,,2013-05-14 15:12:00,
2013-05-14 08:21:00,83.0,49.0,-100.00,SSE,167,7.0,11.0,31,0.00,,,0.00,294.000000,,2013-05-14 15:21:00,
2013-05-14 08:32:00,83.0,49.0,-100.00,SSE,167,7.0,11.0,31,0.00,,,0.00,294.000000,,2013-05-14 15:32:00,
2013-05-14 08:43:00,83.0,49.0,-100.00,SSE,167,7.0,11.0,31,0.00,,,0.00,294.000000,,2013-05-14 15:43:00,
2013-05-14 09:12:00,88.0,48.0,-100.00,SSE,156,10.0,15.0,25,0.00,,,0.00,547.000000,,2013-05-14 16:12:00,
2013-05-14 09:23:00,88.0,48.0,-100.00,SSE,156,10.0,15.0,25,0.00,,,0.00,547.000000,,2013-05-14 16:23:00,
2013-05-14 09:33:00,88.0,48.0,-100.00,SSE,156,10.0,15.0,25,0.00,,,0.00,547.000000,,2013-05-14 16:33:00,
2013-05-14 09:43:00,88.0,48.0,-100.00,SSE,156,10.0,15.0,25,0.00,,,0.00,547.000000,,2013-05-14 16:43:00,
2013-05-14 10:13:00,91.0,47.0,-100.00,SSE,157,11.0,16.0,22,0.00,,,0.00,773.000000,,2013-05-14 17:13:00,
2013-05-14 10:24:00,91.0,47.0,-100.00,SSE,157,11.0,16.0,22,0.00,,,0.00,773.000000,,2013-05-14 17:24:00,
2013-05-14 10:32:00,91.0,47.0,-100.00,SSE,157,11.0,16.0,22,0.00,,,0.00,773.000000,,2013-05-14 17:32:00,
2013-05-14 10:43:00,91.0,47.0,-100.00,SSE,157,11.0,16.0,22,0.00,,,0.00,773.000000,,2013-05-14 17:43:00,
2013-05-14 11:12:00,95.0,45.0,-100.00,SSE,152,11.0,17.0,18,0.00,,,0.00,932.000000,,2013-05-14 18:12:00,
2013-05-14 11:22:00,95.0,45.0,-100.00,SSE,152,11.0,17.0,18,0.00,,,0.00,932.000000,,2013-05-14 18:22:00,
2013-05-14 11:32:00,95.0,45.0,-100.00,SSE,152,11.0,17.0,18,0.00,,,0.00,932.000000,,2013-05-14 18:32:00,
2013-05-14 11:42:00,95.0,45.0,-100.00,SSE,152,11.0,17.0,18,0.00,,,0.00,932.000000,,2013-05-14 18:42:00,
2013-05-14 12:11:00,98.0,42.0,-100.00,SSE,151,10.0,16.0,15,0.00,,,0.00,1054.000000,,2013-05-14 19:11:00,
2013-05-14 12:22:00,98.0,42.0,-100.00,SSE,151,10.0,16.0,15,0.00,,,0.00,1054.000000,,2013-05-14 19:22:00,
2013-05-14 12:31:00,98.0,42.0,-100.00,SSE,151,10.0,16.0,15,0.00,,,0.00,1054.000000,,2013-05-14 19:31:00,
2013-05-14 12:41:00,98.0,42.0,-100.00,SSE,151,10.0,16.0,15,0.00,,,0.00,1054.000000,,2013-05-14 19:41:00,
2013-05-14 13:11:00,101.0,48.0,-100.00,SE,146,8.0,16.0,17,0.00,,,0.00,1102.000000,,2013-05-14 20:11:00,
2013-05-14 13:22:00,101.0,48.0,-100.00,SE,146,8.0,16.0,17,0.00,,,0.00,1102.000000,,2013-05-14 20:22:00,
2013-05-14 13:32:00,101.0,48.0,-100.00,SE,146,8.0,16.0,17,0.00,,,0.00,1102.000000,,2013-05-14 20:32:00,
2013-05-14 13:44:00,101.0,48.0,-100.00,SE,146,8.0,16.0,17,0.00,,,0.00,1102.000000,,2013-05-14 20:44:00,
2013-05-14 14:12:00,103.0,38.0,-100.00,SSW,193,8.0,14.0,11,0.00,,,0.00,1084.000000,,2013-05-14 21:12:00,
2013-05-14 14:22:00,103.0,38.0,-100.00,SSW,193,8.0,14.0,11,0.00,,,0.00,1084.000000,,2013-05-14 21:22:00,
2013-05-14 14:33:00,103.0,38.0,-100.00,SSW,193,8.0,14.0,11,0.00,,,0.00,1084.000000,,2013-05-14 21:33:00,
2013-05-14 14:42:00,103.0,38.0,-100.00,SSW,193,8.0,14.0,11,0.00,,,0.00,1084.000000,,2013-05-14 21:42:00,
2013-05-14 15:13:00,106.0,41.0,-100.00,SSW,209,7.0,17.0,11,0.00,,,0.00,1001.000000,,2013-05-14 22:13:00,
2013-05-14 15:24:00,106.0,41.0,-100.00,SSW,209,7.0,17.0,11,0.00,,,0.00,1001.000000,,2013-05-14 22:24:00,
2013-05-14 15:34:00,106.0,41.0,-100.00,SSW,209,7.0,17.0,11,0.00,,,0.00,1001.000000,,2013-05-14 22:34:00,
2013-05-14 15:45:00,106.0,41.0,-100.00,SSW,209,7.0,17.0,11,0.00,,,0.00,1001.000000,,2013-05-14 22:45:00,
2013-05-14 16:12:00,106.0,35.0,-100.00,SW,222,8.0,16.0,9,0.00,,,0.00,857.000000,,2013-05-14 23:12:00,
2013-05-14 16:21:00,106.0,35.0,-100.00,SW,222,8.0,16.0,9,0.00,,,0.00,857.000000,,2013-05-14 23:21:00,
2013-05-14 16:31:00,106.0,35.0,-100.00,SW,222,8.0,16.0,9,0.00,,,0.00,857.000000,,2013-05-14 23:31:00,
2013-05-14 16:44:00,106.0,35.0,-100.00,SW,222,8.0,16.0,9,0.00,,,0.00,857.000000,,2013-05-14 23:44:00,
2013-05-14 17:11:00,104.0,31.0,-100.00,SSW,200,9.0,16.0,8,0.00,,,0.00,653.000000,,2013-05-15 00:11:00,
2013-05-14 17:21:00,104.0,31.0,-100.00,SSW,200,9.0,16.0,8,0.00,,,0.00,653.000000,,2013-05-15 00:21:00,
2013-05-14 17:32:00,104.0,31.0,-100.00,SSW,200,9.0,16.0,8,0.00,,,0.00,653.000000,,2013-05-15 00:32:00,
2013-05-14 17:41:00,104.0,31.0,-100.00,SSW,200,9.0,16.0,8,0.00,,,0.00,653.000000,,2013-05-15 00:41:00,
2013-05-14 18:11:00,104.0,31.0,-100.00,SW,225,12.0,19.0,8,0.00,,,0.00,410.000000,,2013-05-15 01:11:00,
2013-05-14 18:21:00,104.0,31.0,-100.00,SW,225,12.0,19.0,8,0.00,,,0.00,410.000000,,2013-05-15 01:21:00,
2013-05-14 18:31:00,104.0,31.0,-100.00,SW,225,12.0,19.0,8,0.00,,,0.00,410.000000,,2013-05-15 01:31:00,
2013-05-14 18:42:00,104.0,31.0,-100.00,SW,225,12.0,19.0,8,0.00,,,0.00,410.000000,,2013-05-15 01:42:00,
2013-05-14 19:11:00,101.0,29.0,-100.00,SSW,209,10.0,22.0,8,0.00,,,0.00,171.000000,,2013-05-15 02:11:00,
2013-05-14 19:21:00,101.0,29.0,-100.00,SSW,209,10.0,22.0,8,0.00,,,0.00,171.000000,,2013-05-15 02:21:00,
2013-05-14 19:31:00,101.0,29.0,-100.00,SSW,209,10.0,22.0,8,0.00,,,0.00,171.000000,,2013-05-15 02:31:00,
2013-05-14 19:41:00,101.0,29.0,-100.00,SSW,209,10.0,22.0,8,0.00,,,0.00,171.000000,,2013-05-15 02:41:00,
2013-05-14 20:12:00,97.0,26.0,-100.00,WSW,250,10.0,24.0,8,0.00,,,-99.99,28.000000,,2013-05-15 03:12:00,
2013-05-14 20:21:00,97.0,26.0,-100.00,WSW,250,10.0,24.0,8,0.00,,,-99.99,28.000000,,2013-05-15 03:21:00,
2013-05-14 20:33:00,97.0,26.0,-100.00,WSW,250,10.0,24.0,8,0.00,,,-99.99,28.000000,,2013-05-15 03:33:00,
2013-05-14 20:44:00,97.0,26.0,-100.00,WSW,250,10.0,24.0,8,0.00,,,-99.99,28.000000,,2013-05-15 03:44:00,
2013-05-14 21:12:00,92.0,22.0,-100.00,SW,232,7.0,15.0,8,0.00,,,0.00,0.000000,,2013-05-15 04:12:00,
2013-05-14 21:42:00,92.0,22.0,-100.00,SW,232,7.0,15.0,8,0.00,,,0.00,0.000000,,2013-05-15 04:42:00,
2013-05-14 22:12:00,87.0,28.0,-100.00,South,175,5.0,14.0,12,0.00,,,0.00,0.000000,,2013-05-15 05:12:00,
2013-05-14 22:22:00,87.0,28.0,-100.00,South,175,5.0,14.0,12,0.00,,,0.00,0.000000,,2013-05-15 05:22:00,
2013-05-14 22:32:00,87.0,28.0,-100.00,South,175,5.0,14.0,12,0.00,,,0.00,0.000000,,2013-05-15 05:32:00,
2013-05-14 22:42:00,87.0,28.0,-100.00,South,175,5.0,14.0,12,0.00,,,0.00,0.000000,,2013-05-15 05:42:00,
2013-05-14 23:11:00,85.0,27.0,-100.00,South,181,7.0,11.0,12,0.00,,,0.00,0.000000,,2013-05-15 06:11:00,
2013-05-14 23:21:00,85.0,27.0,-100.00,South,181,7.0,11.0,12,0.00,,,0.00,0.000000,,2013-05-15 06:21:00,
2013-05-14 23:31:00,85.0,27.0,-100.00,South,181,7.0,11.0,12,0.00,,,0.00,0.000000,,2013-05-15 06:31:00,
2013-05-14 23:41:00,85.0,27.0,-100.00,South,181,7.0,11.0,12,0.00,,,0.00,0.000000,,2013-05-15 06:41:00,